Time;durP1;ratioP1;P1;durP2;ratioP2;P2;SDS_P1;SDS_P2;PMS_P1;PMS_P2;Temp;Humidity;BMP_temperature;BMP_pressure;BME280_temperature;BME280_humidity;BME280_pressure;Samples;Min_cycle;Max_cycle;Signal;HPM_P1;HPM_P2
2022/05/23 00:01:52;;;;;;;;;11.00;11.00;26.20;37.80;;;;;;4973165;28;8895;-76
2022/05/23 00:04:17;;;;;;;;;11.67;11.33;26.00;38.20;;;;;;4972221;28;8890;-80
2022/05/23 00:06:44;;;;;;;;;11.67;11.67;26.10;37.60;;;;;;4963125;28;8782;-79
2022/05/23 00:09:10;;;;;;;;;8.67;8.67;26.20;37.00;;;;;;4972123;28;8790;-79
2022/05/23 00:11:36;;;;;;;;;13.67;13.67;26.30;37.10;;;;;;4972625;28;8892;-78
2022/05/23 00:14:02;;;;;;;;;12.67;12.67;26.40;37.00;;;;;;4974574;28;8968;-80
2022/05/23 00:16:34;;;;;;;;;13.00;13.00;26.40;37.50;;;;;;4974570;28;8830;-80
2022/05/23 00:19:00;;;;;;;;;13.67;13.67;26.50;37.60;;;;;;4972022;28;8774;-80
2022/05/23 00:21:26;;;;;;;;;10.00;10.00;26.50;37.40;;;;;;4973910;28;8872;-79
2022/05/23 00:23:51;;;;;;;;;12.33;12.33;26.50;37.20;;;;;;4972592;28;8891;-82
2022/05/23 00:26:20;;;;;;;;;11.67;11.67;26.50;37.40;;;;;;4974912;28;8774;-78
2022/05/23 00:28:46;;;;;;;;;12.00;12.00;26.50;37.10;;;;;;4973942;28;8746;-78
2022/05/23 00:31:12;;;;;;;;;9.00;9.00;26.40;36.90;;;;;;4975569;28;8843;-79
2022/05/23 00:36:28;;;;;;;;;14.67;14.67;26.40;37.80;;;;;;4975407;28;8924;-79
2022/05/23 00:38:54;;;;;;;;;11.33;11.33;26.30;38.00;;;;;;4974239;28;8863;-78
2022/05/23 00:44:22;;;;;;;;;10.33;10.33;26.30;38.40;;;;;;4975790;28;8801;-78
2022/05/23 00:46:50;;;;;;;;;11.00;11.00;26.30;38.50;;;;;;4975500;28;8778;-79
2022/05/23 00:49:19;;;;;;;;;11.33;11.33;26.30;38.10;;;;;;4975540;28;8797;-79
2022/05/23 00:51:45;;;;;;;;;13.33;13.33;26.30;37.90;;;;;;4990652;28;8789;-79
2022/05/23 00:54:11;;;;;;;;;12.33;12.33;26.50;38.50;;;;;;4973668;28;8780;-78
2022/05/23 00:56:44;;;;;;;;;9.00;9.00;26.50;38.00;;;;;;4968854;28;8813;-79
2022/05/23 00:59:12;;;;;;;;;11.67;11.67;26.40;37.30;;;;;;4963609;28;8817;-79
2022/05/23 01:01:39;;;;;;;;;11.00;11.00;26.40;37.30;;;;;;4974292;28;8825;-79
2022/05/23 01:04:08;;;;;;;;;17.33;17.33;26.30;37.40;;;;;;4975315;28;8766;-78
2022/05/23 01:06:34;;;;;;;;;19.33;19.33;26.30;38.10;;;;;;4975353;28;8781;-78
2022/05/23 01:09:01;;;;;;;;;19.67;19.67;26.20;38.00;;;;;;4975299;28;8807;-79
2022/05/23 01:11:27;;;;;;;;;18.00;18.00;26.20;37.90;;;;;;4975441;28;8786;-78
2022/05/23 01:13:54;;;;;;;;;16.33;16.33;26.20;37.90;;;;;;4974343;28;9425;-79
2022/05/23 01:16:24;;;;;;;;;19.67;19.67;26.20;38.00;;;;;;4975366;28;8809;-78
2022/05/23 01:18:50;;;;;;;;;17.00;17.00;26.20;38.00;;;;;;4975276;28;8777;-78
2022/05/23 01:21:49;;;;;;;;;18.67;18.67;26.20;38.00;;;;;;4975177;28;9479;-78
2022/05/23 01:24:44;;;;;;;;;16.67;16.67;26.30;38.50;;;;;;4973086;28;8812;-78
2022/05/23 01:27:11;;;;;;;;;14.00;14.00;26.20;38.80;;;;;;4972548;28;8793;-79
2022/05/23 01:29:37;;;;;;;;;12.33;12.33;26.20;38.50;;;;;;4975110;28;8766;-79
2022/05/23 01:32:04;;;;;;;;;15.00;15.00;26.20;38.10;;;;;;4974003;28;8786;-79
2022/05/23 01:34:29;;;;;;;;;12.00;12.00;26.20;38.30;;;;;;4975030;28;8802;-79
2022/05/23 01:36:55;;;;;;;;;12.33;12.33;26.20;38.00;;;;;;4975041;28;8832;-78
2022/05/23 01:39:21;;;;;;;;;10.00;10.00;26.10;38.30;;;;;;4975263;28;8850;-78
2022/05/23 01:41:46;;;;;;;;;13.00;13.00;26.10;38.70;;;;;;4969490;28;8874;-78
2022/05/23 01:44:13;;;;;;;;;12.33;12.33;26.10;39.00;;;;;;4955832;28;8830;-77
2022/05/23 01:46:38;;;;;;;;;11.33;11.33;26.00;38.30;;;;;;4970005;28;9514;-81
2022/05/23 01:49:04;;;;;;;;;13.67;13.67;25.40;38.90;;;;;;4976279;28;8785;-78
2022/05/23 01:51:30;;;;;;;;;12.00;12.00;25.60;39.10;;;;;;4978382;28;9376;-78
2022/05/23 01:53:56;;;;;;;;;5.00;5.00;25.70;39.10;;;;;;4978553;28;8801;-78
2022/05/23 01:56:22;;;;;;;;;11.00;11.00;25.70;39.20;;;;;;4978290;28;8825;-79
2022/05/23 02:01:32;;;;;;;;;12.00;12.00;25.60;39.30;;;;;;4978362;28;8770;-79
2022/05/23 02:03:58;;;;;;;;;11.67;11.67;25.60;39.50;;;;;;4978329;28;8874;-79
2022/05/23 02:06:23;;;;;;;;;13.33;13.33;25.70;39.30;;;;;;4978376;28;8790;-79
2022/05/23 02:08:49;;;;;;;;;10.00;10.00;25.70;38.70;;;;;;4977230;28;8786;-79
2022/05/23 02:11:15;;;;;;;;;12.67;12.67;25.70;39.70;;;;;;4978498;28;8802;-80
2022/05/23 02:13:43;;;;;;;;;7.00;7.00;25.80;39.50;;;;;;4978320;28;8805;-80
2022/05/23 02:16:10;;;;;;;;;11.33;11.33;25.90;38.90;;;;;;4978046;28;8798;-79
2022/05/23 02:18:36;;;;;;;;;12.67;12.67;26.00;38.90;;;;;;4978270;28;8766;-78
2022/05/23 02:21:02;;;;;;;;;11.33;11.33;26.00;38.40;;;;;;4978015;28;8785;-78
2022/05/23 02:23:28;;;;;;;;;11.33;11.33;26.00;38.50;;;;;;4978214;28;8860;-81
2022/05/23 02:25:54;;;;;;;;;11.33;11.33;25.90;38.80;;;;;;4979011;28;8880;-78
2022/05/23 02:28:20;;;;;;;;;9.67;9.67;26.00;38.60;;;;;;4978375;28;8859;-79
2022/05/23 02:30:47;;;;;;;;;9.67;9.67;25.90;37.50;;;;;;4978611;28;8766;-79
2022/05/23 02:33:14;;;;;;;;;11.00;11.00;26.00;37.70;;;;;;4977468;28;8766;-80
2022/05/23 02:35:41;;;;;;;;;11.67;11.67;26.00;37.50;;;;;;4977932;28;8746;-79
2022/05/23 02:38:07;;;;;;;;;9.00;9.00;26.00;37.20;;;;;;4979439;28;8805;-79
2022/05/23 02:40:33;;;;;;;;;9.00;9.00;26.00;36.80;;;;;;4977561;28;8800;-79
2022/05/23 02:42:59;;;;;;;;;10.00;10.00;25.90;37.40;;;;;;4977516;28;8773;-79
2022/05/23 02:45:25;;;;;;;;;10.33;10.33;25.90;37.20;;;;;;4977849;28;8813;-77
2022/05/23 02:47:51;;;;;;;;;9.67;9.67;26.00;36.50;;;;;;4977649;28;8796;-78
2022/05/23 02:50:17;;;;;;;;;9.00;9.00;26.00;37.90;;;;;;4977212;28;11562;-79
2022/05/23 02:52:44;;;;;;;;;11.67;11.67;25.90;37.90;;;;;;4977327;28;9396;-78
2022/05/23 02:55:10;;;;;;;;;8.33;8.33;25.80;37.00;;;;;;4977404;28;8820;-78
2022/05/23 02:57:37;;;;;;;;;12.00;12.00;25.80;37.20;;;;;;4977008;28;12611;-80
2022/05/23 03:00:08;;;;;;;;;10.67;10.67;25.80;37.50;;;;;;4976836;28;8781;-78
2022/05/23 03:05:18;;;;;;;;;12.00;12.00;25.70;38.10;;;;;;4977166;28;8757;-78
2022/05/23 03:07:45;;;;;;;;;10.00;10.00;25.70;38.00;;;;;;4977233;28;8800;-78
2022/05/23 03:10:12;;;;;;;;;12.67;12.67;25.60;37.50;;;;;;4977014;28;8769;-78
2022/05/23 03:12:37;;;;;;;;;14.00;14.00;25.50;35.90;;;;;;4977150;28;12223;-78
2022/05/23 03:15:05;;;;;;;;;9.00;9.00;25.60;36.50;;;;;;4977252;28;8828;-78
2022/05/23 03:17:31;;;;;;;;;11.67;11.67;25.70;36.50;;;;;;4976710;28;8895;-79
2022/05/23 03:19:57;;;;;;;;;11.00;11.00;25.70;36.70;;;;;;4976919;28;8766;-78
2022/05/23 03:27:52;;;;;;;;;12.00;12.00;25.80;36.00;;;;;;4976782;28;8884;-79
2022/05/23 03:30:18;;;;;;;;;11.67;11.67;25.80;35.60;;;;;;4975849;28;8848;-78
2022/05/23 03:32:44;;;;;;;;;14.67;14.67;25.70;36.00;;;;;;4968112;28;8801;-77
2022/05/23 03:35:10;;;;;;;;;14.67;14.67;25.60;36.00;;;;;;4976448;28;8828;-78
2022/05/23 03:37:36;;;;;;;;;18.67;18.67;25.60;36.20;;;;;;4976378;28;9570;-78
2022/05/23 03:40:03;;;;;;;;;12.67;12.67;25.60;36.40;;;;;;4976714;28;8827;-78
2022/05/23 03:42:29;;;;;;;;;11.33;11.33;25.60;36.40;;;;;;4976399;28;8878;-78
2022/05/23 03:44:55;;;;;;;;;11.00;11.00;25.60;36.60;;;;;;4976667;28;8887;-77
2022/05/23 03:47:21;;;;;;;;;9.67;9.67;25.50;36.30;;;;;;4975267;28;8797;-77
2022/05/23 03:49:47;;;;;;;;;9.00;9.00;25.50;36.00;;;;;;4976344;28;8774;-77
2022/05/23 03:52:13;;;;;;;;;13.00;13.00;25.50;35.90;;;;;;4976484;28;8770;-80
2022/05/23 03:54:38;;;;;;;;;10.33;10.33;25.50;35.90;;;;;;4976412;28;9448;-79
2022/05/23 03:57:04;;;;;;;;;9.00;9.00;25.50;35.90;;;;;;4991225;28;8855;-79
2022/05/23 03:59:31;;;;;;;;;9.33;9.33;25.50;35.90;;;;;;4976138;28;8770;-78
2022/05/23 04:01:57;;;;;;;;;11.33;11.33;25.50;36.10;;;;;;4976115;28;8754;-78
2022/05/23 04:04:29;;;;;;;;;12.00;12.00;25.50;36.10;;;;;;4976101;28;8800;-80
2022/05/23 04:07:03;;;;;;;;;9.33;9.33;25.50;36.40;;;;;;4976055;28;8789;-79
2022/05/23 04:09:29;;;;;;;;;11.00;11.00;25.50;36.60;;;;;;4976160;28;8812;-79
2022/05/23 04:11:56;;;;;;;;;12.33;12.33;25.40;36.80;;;;;;4975205;28;8786;-79
2022/05/23 04:14:23;;;;;;;;;12.33;12.33;25.40;36.70;;;;;;4958729;28;9008;-79
2022/05/23 04:16:49;;;;;;;;;10.67;10.67;25.50;36.80;;;;;;4975781;28;9432;-79
2022/05/23 04:19:16;;;;;;;;;11.33;11.33;25.40;37.30;;;;;;4974767;28;8774;-79
2022/05/23 04:21:43;;;;;;;;;13.00;13.00;25.40;37.60;;;;;;4976071;28;8770;-82
2022/05/23 04:24:10;;;;;;;;;11.67;11.67;25.40;37.40;;;;;;4975738;28;8789;-79
2022/05/23 04:26:37;;;;;;;;;9.67;9.67;25.30;37.50;;;;;;4975696;28;8881;-79
2022/05/23 04:29:06;;;;;;;;;12.33;11.33;25.30;36.90;;;;;;4975674;28;8769;-80
2022/05/23 04:31:33;;;;;;;;;8.33;8.33;25.20;36.90;;;;;;4968329;28;8919;-78
2022/05/23 04:36:42;;;;;;;;;12.33;12.33;25.20;37.00;;;;;;4975625;28;8789;-79
2022/05/23 04:39:09;;;;;;;;;13.00;13.00;25.20;37.10;;;;;;4975245;28;8805;-80
2022/05/23 04:41:35;;;;;;;;;13.33;13.33;25.30;37.50;;;;;;4974814;28;8808;-79
2022/05/23 04:44:01;;;;;;;;;13.33;12.33;25.30;37.10;;;;;;4968379;28;8809;-80
2022/05/23 04:46:28;;;;;;;;;12.33;12.33;25.30;36.70;;;;;;4974929;28;8794;-79
2022/05/23 04:51:40;;;;;;;;;15.00;15.00;25.40;36.80;;;;;;4970747;28;8773;-80
2022/05/23 04:54:07;;;;;;;;;12.33;12.33;25.30;37.10;;;;;;4965103;28;8782;-80
2022/05/23 04:56:33;;;;;;;;;14.00;14.00;25.20;36.80;;;;;;4975603;28;8911;-80
2022/05/23 04:58:59;;;;;;;;;16.33;16.33;25.30;37.60;;;;;;4976088;28;9460;-80
2022/05/23 05:01:26;;;;;;;;;16.67;16.67;25.40;35.80;;;;;;4961490;28;8876;-79
2022/05/23 05:03:57;;;;;;;;;18.67;18.67;25.60;35.60;;;;;;4956582;28;8784;-80
2022/05/23 05:06:26;;;;;;;;;14.67;14.67;25.80;35.40;;;;;;4956250;28;8776;-80
2022/05/23 05:08:52;;;;;;;;;17.33;17.33;26.10;34.50;;;;;;4956232;29;8783;-74
2022/05/23 05:11:18;;;;;;;;;17.33;17.33;26.20;33.90;;;;;;4959404;28;8788;-74
2022/05/23 05:13:44;;;;;;;;;12.33;12.33;26.30;33.90;;;;;;4955669;28;8800;-74
2022/05/23 05:16:12;;;;;;;;;25.00;25.00;26.50;33.40;;;;;;4955764;28;8765;-74
2022/05/23 05:18:38;;;;;;;;;14.33;14.33;26.60;33.70;;;;;;4955554;28;8772;-74
2022/05/23 05:21:06;;;;;;;;;11.00;11.00;26.60;34.50;;;;;;4955730;29;8772;-74
2022/05/23 05:23:32;;;;;;;;;12.33;12.33;26.70;34.10;;;;;;4969340;28;8861;-79
2022/05/23 05:25:57;;;;;;;;;11.00;11.00;26.70;34.60;;;;;;4978649;28;8789;-80
2022/05/23 05:28:23;;;;;;;;;26.00;26.00;26.80;33.10;;;;;;4960104;28;8815;-80
2022/05/23 05:31:00;;;;;;;;;20.00;20.00;27.00;32.00;;;;;;4959501;28;8784;-79
2022/05/23 05:33:34;;;;;;;;;22.67;22.67;27.10;31.60;;;;;;4972029;28;8854;-81
2022/05/23 05:36:04;;;;;;;;;18.67;18.67;27.30;31.70;;;;;;4978820;28;8884;-79
2022/05/23 05:38:44;;;;;;;;;9.00;9.00;27.40;31.80;;;;;;4959433;28;9158;-80
2022/05/23 05:41:14;;;;;;;;;7.67;7.67;27.20;30.60;;;;;;4959232;28;8780;-80
2022/05/23 05:44:00;;;;;;;;;5.00;5.00;27.10;30.60;;;;;;4959042;28;11536;-80
2022/05/23 05:46:47;;;;;;;;;9.33;9.33;27.00;30.40;;;;;;4959067;28;11490;-79
2022/05/23 05:49:18;;;;;;;;;7.00;7.00;27.00;32.20;;;;;;4959427;28;8769;-79
2022/05/23 05:51:45;;;;;;;;;7.67;7.67;26.90;32.60;;;;;;4959339;28;11514;-80
2022/05/23 05:54:18;;;;;;;;;8.00;8.00;26.90;32.00;;;;;;4959333;28;11493;-80
2022/05/23 05:56:45;;;;;;;;;9.33;9.33;26.90;31.80;;;;;;4958801;28;12193;-80
2022/05/23 05:59:12;;;;;;;;;9.33;9.33;26.80;32.50;;;;;;4958818;28;11518;-80
2022/05/23 06:01:37;;;;;;;;;7.00;7.00;26.70;32.10;;;;;;4958850;28;11514;-80
2022/05/23 06:04:03;;;;;;;;;8.00;8.00;26.60;32.40;;;;;;4958863;28;12171;-81
2022/05/23 06:11:59;;;;;;;;;8.00;8.00;26.30;29.90;;;;;;4958903;28;8744;-81
2022/05/23 06:14:25;;;;;;;;;7.33;7.33;26.50;29.50;;;;;;4958800;28;11515;-81
2022/05/23 06:16:51;;;;;;;;;9.33;9.33;26.90;29.40;;;;;;4958587;28;8812;-80
2022/05/23 06:19:17;;;;;;;;;6.00;6.00;27.30;29.00;;;;;;4958685;28;8788;-80
2022/05/23 06:21:43;;;;;;;;;6.00;6.00;27.40;28.00;;;;;;4958410;28;11519;-81
2022/05/23 06:24:08;;;;;;;;;6.33;6.33;27.50;27.50;;;;;;4958429;28;8776;-80
2022/05/23 06:26:34;;;;;;;;;9.00;9.00;27.60;27.10;;;;;;4958817;28;8788;-81
2022/05/23 06:29:00;;;;;;;;;8.00;8.00;27.80;26.90;;;;;;4958709;28;8756;-80
2022/05/23 06:31:26;;;;;;;;;6.00;6.00;27.80;26.60;;;;;;4958754;28;8788;-80
2022/05/23 06:33:51;;;;;;;;;7.00;7.00;27.70;27.00;;;;;;4958147;28;8815;-80
2022/05/23 06:36:18;;;;;;;;;7.00;7.00;27.70;27.00;;;;;;4957254;28;8803;-80
2022/05/23 06:38:44;;;;;;;;;7.67;7.67;27.60;27.80;;;;;;4958214;28;8884;-80
2022/05/23 06:41:10;;;;;;;;;8.00;8.00;27.50;27.40;;;;;;4958249;28;11674;-79
2022/05/23 06:43:38;;;;;;;;;7.00;7.00;27.60;28.00;;;;;;4958149;28;8956;-81
2022/05/23 06:46:04;;;;;;;;;7.00;7.00;27.60;28.60;;;;;;4958375;28;11528;-81
2022/05/23 06:48:30;;;;;;;;;6.00;6.00;27.70;29.00;;;;;;4957971;28;11519;-81
2022/05/23 06:50:56;;;;;;;;;5.67;5.67;27.70;28.10;;;;;;4958082;28;8788;-81
2022/05/23 06:53:24;;;;;;;;;5.00;5.00;27.70;28.20;;;;;;4957974;28;11590;-81
2022/05/23 06:55:51;;;;;;;;;8.33;8.33;27.70;28.40;;;;;;4964525;28;8855;-79
2022/05/23 06:58:19;;;;;;;;;5.00;5.00;27.60;28.80;;;;;;4964812;28;11559;-81
2022/05/23 07:00:45;;;;;;;;;9.00;9.00;27.40;29.00;;;;;;4957906;28;11488;-80
2022/05/23 07:03:11;;;;;;;;;8.00;8.00;27.30;29.10;;;;;;4957760;28;11519;-81
2022/05/23 07:13:52;;;;;;;;;6.33;6.33;27.20;29.70;;;;;;4969125;28;11534;-82
2022/05/23 07:16:18;;;;;;;;;7.00;7.00;27.40;29.50;;;;;;4970179;28;12373;-82
2022/05/23 07:18:45;;;;;;;;;8.00;8.00;27.40;29.20;;;;;;4956754;28;8808;-83
2022/05/23 07:21:11;;;;;;;;;8.00;8.00;27.10;29.20;;;;;;4959893;28;8776;-81
2022/05/23 07:23:38;;;;;;;;;7.00;7.00;27.10;29.10;;;;;;4975691;28;12292;-80
2022/05/23 07:26:06;;;;;;;;;6.00;6.00;27.30;29.60;;;;;;4976410;28;11474;-77
2022/05/23 07:28:32;;;;;;;;;8.33;8.33;27.50;29.70;;;;;;4976605;28;11490;-75
2022/05/23 07:30:58;;;;;;;;;6.00;6.00;27.50;29.40;;;;;;4976653;28;11589;-76
2022/05/23 07:33:24;;;;;;;;;6.00;6.00;27.40;28.90;;;;;;4976733;28;11574;-75
2022/05/23 07:35:58;;;;;;;;;6.00;6.00;27.50;29.10;;;;;;4976586;28;11469;-75
2022/05/23 07:38:25;;;;;;;;;5.33;5.33;27.30;28.50;;;;;;4976466;28;11475;-76
2022/05/23 07:40:52;;;;;;;;;6.67;6.67;27.30;28.70;;;;;;4976746;28;12162;-77
2022/05/23 07:43:18;;;;;;;;;5.00;5.00;27.40;28.60;;;;;;4969512;28;11539;-77
2022/05/23 07:45:45;;;;;;;;;6.00;6.00;27.60;28.40;;;;;;4973232;28;11500;-77
2022/05/23 07:48:11;;;;;;;;;7.00;7.00;28.20;28.20;;;;;;4975820;28;12197;-79
2022/05/23 07:50:37;;;;;;;;;4.25;4.25;28.80;27.40;;;;;;4976347;28;11520;-77
2022/05/23 08:01:16;;;;;;;;;6.67;6.67;29.80;26.80;;;;;;4976319;28;12222;-76
2022/05/23 08:03:42;;;;;;;;;6.00;6.00;29.80;26.20;;;;;;4976045;28;11621;-76
2022/05/23 08:06:11;;;;;;;;;7.00;7.00;29.60;25.90;;;;;;4976119;28;8789;-75
2022/05/23 08:08:37;;;;;;;;;8.67;8.67;29.80;26.40;;;;;;4975911;28;11498;-75
2022/05/23 08:11:08;;;;;;;;;6.00;6.00;29.70;26.70;;;;;;4975934;28;11541;-77
2022/05/23 08:13:38;;;;;;;;;6.67;6.67;29.80;26.90;;;;;;4975725;28;8924;-76
2022/05/23 08:16:04;;;;;;;;;7.00;7.00;29.60;27.60;;;;;;4990911;28;11603;-76
2022/05/23 08:18:31;;;;;;;;;8.00;8.00;29.50;27.60;;;;;;4975989;28;11511;-75
2022/05/23 08:20:57;;;;;;;;;8.33;8.33;29.80;27.70;;;;;;4975720;28;11505;-81
2022/05/23 08:23:23;;;;;;;;;7.33;7.33;29.80;27.60;;;;;;4976052;28;11475;-77
2022/05/23 08:25:48;;;;;;;;;7.00;7.00;30.00;27.90;;;;;;4975934;28;11498;-78
2022/05/23 08:28:14;;;;;;;;;6.75;6.75;30.00;26.80;;;;;;4976072;28;8754;-79
2022/05/23 08:30:40;;;;;;;;;7.00;7.00;30.10;26.40;;;;;;4976147;28;8944;-79
2022/05/23 08:33:06;;;;;;;;;9.00;9.00;30.20;26.40;;;;;;4975442;28;8769;-76
2022/05/23 08:35:32;;;;;;;;;5.25;5.25;30.30;26.70;;;;;;4976007;28;8784;-82
2022/05/23 08:37:59;;;;;;;;;6.00;6.00;30.30;26.20;;;;;;4975379;28;12561;-78
2022/05/23 08:40:47;;;;;;;;;7.00;7.00;30.30;26.00;;;;;;4990541;28;11555;-80
2022/05/23 08:43:28;;;;;;;;;7.00;7.00;30.40;26.00;;;;;;4975385;28;11486;-77
2022/05/23 08:45:57;;;;;;;;;9.00;9.00;30.90;25.80;;;;;;4975475;28;11498;-77
2022/05/23 08:48:57;;;;;;;;;7.75;7.75;31.10;26.30;;;;;;4974412;28;11579;-83
2022/05/23 08:51:35;;;;;;;;;8.00;8.00;31.30;26.30;;;;;;4975084;28;11560;-76
2022/05/23 08:54:24;;;;;;;;;6.00;6.00;31.30;25.90;;;;;;4990320;28;12272;-76
2022/05/23 08:56:54;;;;;;;;;7.75;7.75;31.30;26.00;;;;;;4975100;28;11548;-77
2022/05/23 08:59:20;;;;;;;;;6.00;6.00;30.70;26.10;;;;;;4992218;28;11566;-75
2022/05/23 09:01:54;;;;;;;;;6.50;6.50;30.40;26.30;;;;;;4979171;28;11607;-77
2022/05/23 09:04:42;;;;;;;;;8.25;8.00;30.20;26.50;;;;;;4979327;28;8766;-77
2022/05/23 09:07:13;;;;;;;;;8.00;8.00;30.00;26.40;;;;;;4979304;28;11503;-78
2022/05/23 09:09:39;;;;;;;;;7.25;7.25;30.10;26.60;;;;;;4979186;28;11627;-76
2022/05/23 09:12:11;;;;;;;;;3.75;3.75;30.10;25.50;;;;;;4994573;28;11492;-77
2022/05/23 09:14:38;;;;;;;;;8.00;8.00;30.00;25.80;;;;;;4979183;28;11599;-77
2022/05/23 09:17:09;;;;;;;;;6.50;6.50;30.20;25.30;;;;;;4979125;28;11514;-80
2022/05/23 09:19:51;;;;;;;;;7.00;7.00;30.40;25.60;;;;;;4979065;28;11458;-75
2022/05/23 09:22:23;;;;;;;;;6.00;6.00;30.20;25.30;;;;;;4978963;28;11544;-78
2022/05/23 09:24:57;;;;;;;;;3.00;3.00;30.20;24.80;;;;;;4979028;28;11497;-76
2022/05/23 09:27:37;;;;;;;;;6.00;6.00;30.40;25.70;;;;;;4978722;28;11478;-76
2022/05/23 09:30:16;;;;;;;;;6.00;6.00;30.50;25.20;;;;;;4978908;28;11549;-77
2022/05/23 09:32:49;;;;;;;;;6.00;6.00;30.40;24.70;;;;;;4978695;28;11462;-78
2022/05/23 09:35:17;;;;;;;;;6.00;6.00;30.30;24.50;;;;;;4978414;28;11514;-76
2022/05/23 09:37:46;;;;;;;;;6.50;6.50;30.30;24.60;;;;;;4978561;28;11561;-76
2022/05/23 09:40:25;;;;;;;;;5.75;5.75;30.40;24.30;;;;;;4978667;28;11458;-76
2022/05/23 09:48:23;;;;;;;;;5.00;5.00;30.70;24.20;;;;;;4978566;28;12127;-76
2022/05/23 09:50:59;;;;;;;;;5.00;5.00;31.00;23.10;;;;;;4978640;28;11594;-76
2022/05/23 09:53:29;;;;;;;;;6.00;6.00;31.00;23.10;;;;;;4978627;28;12128;-77
2022/05/23 09:56:36;;;;;;;;;6.00;6.00;31.00;23.90;;;;;;4978313;28;11459;-76
2022/05/23 09:59:07;;;;;;;;;5.25;5.25;30.90;23.50;;;;;;4977993;28;11487;-76
2022/05/23 10:01:34;;;;;;;;;6.00;6.00;31.00;22.70;;;;;;4978694;28;11457;-77
2022/05/23 10:04:00;;;;;;;;;4.50;4.50;31.30;22.90;;;;;;4977983;28;11557;-79
2022/05/23 10:06:53;;;;;;;;;5.50;5.50;31.60;23.40;;;;;;4978272;28;11502;-79
2022/05/23 10:09:37;;;;;;;;;7.00;7.00;32.40;22.90;;;;;;4975439;28;11534;-79
2022/05/23 10:12:09;;;;;;;;;4.00;4.00;32.50;21.80;;;;;;4977867;28;11664;-77
2022/05/23 10:14:43;;;;;;;;;5.50;5.50;32.50;22.30;;;;;;4969210;28;12211;-76
2022/05/23 10:17:09;;;;;;;;;5.00;5.00;33.10;22.80;;;;;;4965208;28;11668;-77
2022/05/23 10:19:37;;;;;;;;;5.50;5.50;33.50;21.70;;;;;;4970940;28;11475;-75
2022/05/23 10:22:17;;;;;;;;;5.00;5.00;33.80;21.30;;;;;;4977262;28;11474;-75
2022/05/23 10:24:54;;;;;;;;;3.00;3.00;33.70;21.80;;;;;;4977721;28;11503;-83
2022/05/23 10:27:44;;;;;;;;;4.75;4.75;33.90;20.50;;;;;;4974343;28;11532;-77
2022/05/23 10:30:11;;;;;;;;;5.00;5.00;34.00;20.40;;;;;;4966846;28;12173;-76
2022/05/23 10:32:48;;;;;;;;;6.00;6.00;34.00;20.90;;;;;;4966724;28;11487;-76
2022/05/23 10:35:39;;;;;;;;;5.25;5.25;33.90;20.30;;;;;;4976372;28;11577;-78
2022/05/23 10:44:14;;;;;;;;;5.00;5.00;32.90;20.70;;;;;;4977346;28;12132;-79
2022/05/23 10:46:44;;;;;;;;;6.00;6.00;32.00;20.40;;;;;;4977443;28;11528;-78
2022/05/23 10:49:20;;;;;;;;;5.25;5.25;32.30;21.20;;;;;;4977201;28;11477;-79
2022/05/23 10:52:06;;;;;;;;;4.50;4.50;32.40;21.40;;;;;;4977391;28;11468;-78
2022/05/23 10:54:54;;;;;;;;;4.00;4.00;32.30;21.10;;;;;;4977225;28;12121;-79
2022/05/23 10:57:38;;;;;;;;;6.00;6.00;31.90;21.00;;;;;;4977122;28;11664;-77
2022/05/23 11:00:18;;;;;;;;;4.25;4.25;31.80;21.00;;;;;;4977140;28;11666;-80
2022/05/23 11:03:18;;;;;;;;;5.25;5.25;31.60;21.80;;;;;;4976874;28;12159;-80
2022/05/23 11:05:54;;;;;;;;;4.50;4.50;31.80;22.10;;;;;;4977223;28;11499;-79
2022/05/23 11:08:51;;;;;;;;;4.50;4.50;32.20;23.00;;;;;;4976900;28;11597;-79
2022/05/23 11:11:55;;;;;;;;;5.00;5.00;32.00;21.20;;;;;;4976958;28;11543;-80
2022/05/23 11:14:32;;;;;;;;;6.00;6.00;31.80;21.90;;;;;;4976941;28;11534;-79
2022/05/23 11:17:23;;;;;;;;;5.25;5.25;31.50;21.50;;;;;;4969740;28;12169;-79
2022/05/23 11:20:20;;;;;;;;;5.75;5.75;31.20;22.00;;;;;;4970791;28;12335;-80
2022/05/23 11:23:00;;;;;;;;;4.50;4.50;31.30;22.00;;;;;;4985857;28;11502;-79
2022/05/23 11:25:32;;;;;;;;;6.50;6.50;31.40;22.90;;;;;;4974653;28;11477;-80
2022/05/23 11:34:04;;;;;;;;;5.50;5.50;31.40;23.20;;;;;;4974572;28;12169;-79
2022/05/23 11:36:56;;;;;;;;;5.00;5.00;31.60;23.20;;;;;;4973598;28;12164;-79
2022/05/23 11:39:42;;;;;;;;;6.00;6.00;32.00;23.80;;;;;;4965492;28;11496;-79
2022/05/23 11:42:24;;;;;;;;;5.00;5.00;32.20;23.10;;;;;;4975917;28;11566;-80
2022/05/23 11:44:50;;;;;;;;;5.00;5.00;32.40;23.20;;;;;;4976559;28;11506;-79
2022/05/23 11:47:27;;;;;;;;;6.25;6.25;32.40;23.60;;;;;;4976385;28;12240;-77
2022/05/23 11:50:01;;;;;;;;;6.00;6.00;32.30;23.30;;;;;;4976368;28;8785;-83
2022/05/23 11:52:40;;;;;;;;;6.00;6.00;31.70;22.80;;;;;;4976452;28;11477;-80
2022/05/23 11:55:12;;;;;;;;;5.00;5.00;31.60;23.50;;;;;;4976151;28;11586;-78
2022/05/23 11:57:40;;;;;;;;;5.00;5.00;31.60;23.20;;;;;;4976040;28;11587;-77
2022/05/23 12:00:06;;;;;;;;;5.00;5.00;31.60;23.20;;;;;;4975964;28;11494;-77
2022/05/23 12:02:38;;;;;;;;;4.25;4.25;31.90;23.00;;;;;;4975744;28;11522;-78
2022/05/23 12:05:12;;;;;;;;;4.00;4.00;32.30;22.80;;;;;;4972039;28;11496;-77
2022/05/23 12:07:38;;;;;;;;;5.75;5.75;32.50;23.10;;;;;;4975650;28;11478;-75
2022/05/23 12:10:22;;;;;;;;;7.25;7.25;32.90;23.60;;;;;;4975664;28;11506;-76
2022/05/23 12:12:56;;;;;;;;;5.75;5.75;33.50;22.20;;;;;;4975906;28;8910;-76
2022/05/23 12:15:43;;;;;;;;;5.50;5.50;33.80;21.70;;;;;;4959843;28;11626;-76
2022/05/23 12:18:35;;;;;;;;;6.00;6.00;33.80;21.50;;;;;;4973897;28;11595;-76
2022/05/23 12:21:36;;;;;;;;;5.00;5.00;33.80;21.90;;;;;;4968969;28;11571;-78
2022/05/23 12:24:26;;;;;;;;;7.00;7.00;33.70;21.60;;;;;;4971286;28;11636;-78
2022/05/23 12:26:57;;;;;;;;;7.25;7.25;33.40;21.80;;;;;;4956218;28;11613;-77
2022/05/23 12:29:36;;;;;;;;;5.00;5.00;33.60;21.40;;;;;;4973739;28;11556;-76
2022/05/23 12:32:05;;;;;;;;;6.75;6.75;34.30;21.50;;;;;;4962098;28;11483;-76
2022/05/23 12:34:39;;;;;;;;;5.75;5.75;34.70;21.70;;;;;;4960924;28;11570;-76
2022/05/23 12:37:05;;;;;;;;;7.50;7.50;34.60;20.80;;;;;;4956085;28;11610;-76
2022/05/23 12:40:08;;;;;;;;;6.25;6.25;35.00;20.90;;;;;;4957905;28;12281;-76
2022/05/23 12:42:40;;;;;;;;;6.00;6.00;34.80;20.30;;;;;;4971847;28;8794;-76
2022/05/23 12:45:24;;;;;;;;;5.75;5.75;34.90;20.60;;;;;;4974176;28;11613;-76
2022/05/23 12:48:09;;;;;;;;;8.00;8.00;34.90;20.70;;;;;;4971876;28;11510;-75
2022/05/23 12:51:05;;;;;;;;;6.50;6.50;34.60;21.60;;;;;;4969814;28;11515;-79
2022/05/23 12:54:10;;;;;;;;;5.00;5.00;34.20;21.90;;;;;;4963470;28;11605;-77
2022/05/23 12:56:55;;;;;;;;;5.50;5.50;34.60;21.80;;;;;;4970338;28;11565;-75
2022/05/23 12:59:47;;;;;;;;;5.25;5.25;34.80;21.20;;;;;;4959170;28;11541;-75
2022/05/23 13:02:41;;;;;;;;;7.00;7.00;35.40;21.00;;;;;;4974034;28;11477;-76
2022/05/23 13:05:13;;;;;;;;;6.00;6.00;35.00;21.50;;;;;;4966163;28;12172;-74
2022/05/23 13:08:06;;;;;;;;;5.00;5.00;34.70;20.60;;;;;;4973910;28;11486;-74
2022/05/23 13:10:42;;;;;;;;;6.00;6.00;34.50;20.50;;;;;;4970347;28;11508;-74
2022/05/23 13:13:36;;;;;;;;;6.75;6.75;34.10;20.90;;;;;;4973789;28;11493;-74
2022/05/23 13:16:26;;;;;;;;;7.00;7.00;33.20;21.80;;;;;;4973480;28;11490;-74
2022/05/23 13:22:05;;;;;;;;;6.25;6.25;32.70;23.20;;;;;;4974671;28;11490;-73
2022/05/23 13:24:55;;;;;;;;;6.25;6.25;32.10;22.60;;;;;;4974948;28;11505;-74
2022/05/23 13:27:48;;;;;;;;;6.00;6.00;32.00;23.30;;;;;;4966381;28;11549;-73
2022/05/23 13:30:17;;;;;;;;;5.75;5.75;31.90;23.40;;;;;;4964679;28;11478;-73
2022/05/23 13:32:44;;;;;;;;;7.00;7.00;31.80;23.40;;;;;;4965644;28;11515;-75
2022/05/23 13:35:24;;;;;;;;;8.50;8.50;31.70;23.60;;;;;;4974722;28;11533;-77
2022/05/23 13:37:51;;;;;;;;;6.75;6.75;31.70;23.40;;;;;;4974165;28;12144;-78
2022/05/23 13:40:25;;;;;;;;;5.75;5.75;31.70;23.70;;;;;;4975092;28;11491;-78
2022/05/23 13:43:07;;;;;;;;;7.25;7.25;31.50;24.00;;;;;;4975098;28;11485;-77
2022/05/23 13:45:35;;;;;;;;;5.75;5.75;31.40;24.20;;;;;;4976269;28;11621;-75
2022/05/23 13:48:08;;;;;;;;;6.25;6.25;30.90;24.10;;;;;;4973741;28;11723;-75
2022/05/23 13:50:40;;;;;;;;;7.50;7.50;30.90;24.60;;;;;;4960508;28;11536;-77
2022/05/23 13:53:11;;;;;;;;;7.00;7.00;31.00;24.90;;;;;;4973123;28;11577;-75
2022/05/23 13:55:42;;;;;;;;;6.50;6.50;30.90;24.90;;;;;;4962655;28;12141;-75
2022/05/23 13:58:17;;;;;;;;;5.75;5.75;31.00;25.30;;;;;;4978065;28;11593;-75
2022/05/23 14:00:57;;;;;;;;;7.75;7.75;31.60;25.50;;;;;;4970999;28;11462;-76
2022/05/23 14:03:42;;;;;;;;;6.25;6.25;32.00;24.70;;;;;;4968006;28;11494;-73
2022/05/23 14:06:18;;;;;;;;;8.50;8.50;32.10;23.80;;;;;;4958142;28;12220;-74
2022/05/23 14:08:52;;;;;;;;;7.00;7.00;32.30;24.20;;;;;;4968853;28;11539;-78
2022/05/23 14:11:18;;;;;;;;;7.25;7.25;32.40;23.90;;;;;;4968588;28;11959;-78
2022/05/23 14:13:46;;;;;;;;;8.50;8.50;32.60;24.00;;;;;;4974446;28;11522;-76